sensor_id;sensor_type;location;lat;lon;timestamp;temperature;humidity
40828;DHT22;26549;50.918;5.338;2023-08-12T00:00:29;23.00;99.90
40828;DHT22;26549;50.918;5.338;2023-08-12T00:02:55;23.00;99.90
40828;DHT22;26549;50.918;5.338;2023-08-12T00:05:21;22.90;99.90
40828;DHT22;26549;50.918;5.338;2023-08-12T00:07:48;22.90;99.90
40828;DHT22;26549;50.918;5.338;2023-08-12T00:10:14;23.00;99.90
40828;DHT22;26549;50.918;5.338;2023-08-12T00:12:41;22.90;99.90
40828;DHT22;26549;50.918;5.338;2023-08-12T00:15:08;22.90;99.90
40828;DHT22;26549;50.918;5.338;2023-08-12T00:17:34;22.90;99.90
40828;DHT22;26549;50.918;5.338;2023-08-12T00:20:05;22.90;99.90
40828;DHT22;26549;50.918;5.338;2023-08-12T00:22:32;22.90;99.90
40828;DHT22;26549;50.918;5.338;2023-08-12T00:24:58;23.00;99.90
40828;DHT22;26549;50.918;5.338;2023-08-12T00:27:23;23.00;99.90
40828;DHT22;26549;50.918;5.338;2023-08-12T00:29:49;23.00;99.90
40828;DHT22;26549;50.918;5.338;2023-08-12T00:32:15;22.90;99.90
40828;DHT22;26549;50.918;5.338;2023-08-12T00:34:41;22.90;99.90
40828;DHT22;26549;50.918;5.338;2023-08-12T00:37:06;22.90;99.90
40828;DHT22;26549;50.918;5.338;2023-08-12T00:39:32;23.00;99.90
40828;DHT22;26549;50.918;5.338;2023-08-12T00:41:58;22.90;99.90
40828;DHT22;26549;50.918;5.338;2023-08-12T00:44:23;22.80;99.90
40828;DHT22;26549;50.918;5.338;2023-08-12T00:46:49;22.80;99.90
40828;DHT22;26549;50.918;5.338;2023-08-12T00:49:16;22.80;99.90
40828;DHT22;26549;50.918;5.338;2023-08-12T00:51:44;22.80;99.90
40828;DHT22;26549;50.918;5.338;2023-08-12T00:54:13;22.80;99.90
40828;DHT22;26549;50.918;5.338;2023-08-12T00:56:40;22.80;99.90
40828;DHT22;26549;50.918;5.338;2023-08-12T00:59:07;22.90;99.90
40828;DHT22;26549;50.918;5.338;2023-08-12T01:01:40;22.80;99.90
40828;DHT22;26549;50.918;5.338;2023-08-12T01:04:09;22.80;99.90
40828;DHT22;26549;50.918;5.338;2023-08-12T01:06:35;22.80;99.90
40828;DHT22;26549;50.918;5.338;2023-08-12T01:09:03;22.90;99.90
40828;DHT22;26549;50.918;5.338;2023-08-12T01:14:18;22.80;99.90
40828;DHT22;26549;50.918;5.338;2023-08-12T01:16:49;22.80;99.90
40828;DHT22;26549;50.918;5.338;2023-08-12T01:19:32;22.90;99.90
40828;DHT22;26549;50.918;5.338;2023-08-12T01:22:00;22.80;99.90
40828;DHT22;26549;50.918;5.338;2023-08-12T01:24:27;22.80;99.90
40828;DHT22;26549;50.918;5.338;2023-08-12T01:26:59;22.80;99.90
40828;DHT22;26549;50.918;5.338;2023-08-12T01:29:25;22.80;99.90
40828;DHT22;26549;50.918;5.338;2023-08-12T01:34:48;22.70;99.90
40828;DHT22;26549;50.918;5.338;2023-08-12T01:37:24;22.60;99.90
40828;DHT22;26549;50.918;5.338;2023-08-12T01:39:52;22.70;99.90
40828;DHT22;26549;50.918;5.338;2023-08-12T01:42:19;22.70;99.90
40828;DHT22;26549;50.918;5.338;2023-08-12T01:44:46;22.80;99.90
40828;DHT22;26549;50.918;5.338;2023-08-12T01:47:12;22.70;99.90
40828;DHT22;26549;50.918;5.338;2023-08-12T01:49:37;22.70;99.90
40828;DHT22;26549;50.918;5.338;2023-08-12T01:52:03;22.60;99.90
40828;DHT22;26549;50.918;5.338;2023-08-12T01:54:29;22.60;99.90
40828;DHT22;26549;50.918;5.338;2023-08-12T01:57:03;22.50;99.90
40828;DHT22;26549;50.918;5.338;2023-08-12T01:59:34;22.50;99.90
40828;DHT22;26549;50.918;5.338;2023-08-12T02:02:00;22.40;99.90
40828;DHT22;26549;50.918;5.338;2023-08-12T02:04:27;22.50;99.90
40828;DHT22;26549;50.918;5.338;2023-08-12T02:06:54;22.50;99.90
40828;DHT22;26549;50.918;5.338;2023-08-12T02:09:20;22.40;99.90
40828;DHT22;26549;50.918;5.338;2023-08-12T02:11:46;22.30;99.90
40828;DHT22;26549;50.918;5.338;2023-08-12T02:14:12;22.30;99.90
40828;DHT22;26549;50.918;5.338;2023-08-12T02:16:37;22.40;99.90
40828;DHT22;26549;50.918;5.338;2023-08-12T02:19:03;22.40;99.90
40828;DHT22;26549;50.918;5.338;2023-08-12T02:21:29;22.40;99.90
40828;DHT22;26549;50.918;5.338;2023-08-12T02:23:55;22.30;99.90
40828;DHT22;26549;50.918;5.338;2023-08-12T02:26:21;22.30;99.90
40828;DHT22;26549;50.918;5.338;2023-08-12T02:28:46;22.20;99.90
40828;DHT22;26549;50.918;5.338;2023-08-12T02:31:12;22.20;99.90
40828;DHT22;26549;50.918;5.338;2023-08-12T02:33:38;22.20;99.90
40828;DHT22;26549;50.918;5.338;2023-08-12T02:36:04;22.20;99.90
40828;DHT22;26549;50.918;5.338;2023-08-12T02:38:30;22.30;99.90
40828;DHT22;26549;50.918;5.338;2023-08-12T02:40:55;22.30;99.90
40828;DHT22;26549;50.918;5.338;2023-08-12T02:43:22;22.20;99.90
40828;DHT22;26549;50.918;5.338;2023-08-12T02:45:48;22.10;99.90
40828;DHT22;26549;50.918;5.338;2023-08-12T02:48:13;22.10;99.90
40828;DHT22;26549;50.918;5.338;2023-08-12T02:50:39;22.20;99.90
40828;DHT22;26549;50.918;5.338;2023-08-12T02:53:05;22.20;99.90
40828;DHT22;26549;50.918;5.338;2023-08-12T02:55:32;22.30;99.90
40828;DHT22;26549;50.918;5.338;2023-08-12T02:57:58;22.30;99.90
40828;DHT22;26549;50.918;5.338;2023-08-12T03:00:24;22.30;99.90
40828;DHT22;26549;50.918;5.338;2023-08-12T03:02:50;22.20;99.90
40828;DHT22;26549;50.918;5.338;2023-08-12T03:05:15;22.30;99.90
40828;DHT22;26549;50.918;5.338;2023-08-12T03:07:41;22.30;99.90
40828;DHT22;26549;50.918;5.338;2023-08-12T03:10:07;22.20;99.90
40828;DHT22;26549;50.918;5.338;2023-08-12T03:12:34;22.20;99.90
40828;DHT22;26549;50.918;5.338;2023-08-12T03:15:00;22.20;99.90
40828;DHT22;26549;50.918;5.338;2023-08-12T03:17:26;22.20;99.90
40828;DHT22;26549;50.918;5.338;2023-08-12T03:19:52;22.20;99.90
40828;DHT22;26549;50.918;5.338;2023-08-12T03:22:20;22.20;99.90
40828;DHT22;26549;50.918;5.338;2023-08-12T03:24:46;22.30;99.90
40828;DHT22;26549;50.918;5.338;2023-08-12T03:27:12;22.30;99.90
40828;DHT22;26549;50.918;5.338;2023-08-12T03:29:38;22.20;99.90
40828;DHT22;26549;50.918;5.338;2023-08-12T03:32:04;22.20;99.90
40828;DHT22;26549;50.918;5.338;2023-08-12T03:34:29;22.30;99.90
40828;DHT22;26549;50.918;5.338;2023-08-12T03:36:55;22.20;99.90
40828;DHT22;26549;50.918;5.338;2023-08-12T03:39:21;22.20;99.90
40828;DHT22;26549;50.918;5.338;2023-08-12T03:41:47;22.20;99.90
40828;DHT22;26549;50.918;5.338;2023-08-12T03:44:13;22.20;99.90
40828;DHT22;26549;50.918;5.338;2023-08-12T03:46:38;22.20;99.90
40828;DHT22;26549;50.918;5.338;2023-08-12T03:49:04;22.20;99.90
40828;DHT22;26549;50.918;5.338;2023-08-12T03:51:30;22.20;99.90
40828;DHT22;26549;50.918;5.338;2023-08-12T03:53:55;22.20;99.90
40828;DHT22;26549;50.918;5.338;2023-08-12T03:56:22;22.20;99.90
40828;DHT22;26549;50.918;5.338;2023-08-12T03:58:48;22.20;99.90
40828;DHT22;26549;50.918;5.338;2023-08-12T04:01:14;22.20;99.90
40828;DHT22;26549;50.918;5.338;2023-08-12T04:03:39;22.30;99.90
40828;DHT22;26549;50.918;5.338;2023-08-12T04:06:05;22.30;99.90
40828;DHT22;26549;50.918;5.338;2023-08-12T04:08:31;22.30;99.90
40828;DHT22;26549;50.918;5.338;2023-08-12T04:10:57;22.30;99.90
40828;DHT22;26549;50.918;5.338;2023-08-12T04:13:23;22.30;99.90
40828;DHT22;26549;50.918;5.338;2023-08-12T04:15:50;22.20;99.90
40828;DHT22;26549;50.918;5.338;2023-08-12T04:18:16;22.20;99.90
40828;DHT22;26549;50.918;5.338;2023-08-12T04:20:42;22.20;99.90
40828;DHT22;26549;50.918;5.338;2023-08-12T04:23:08;22.30;99.90
40828;DHT22;26549;50.918;5.338;2023-08-12T04:25:33;22.30;99.90
40828;DHT22;26549;50.918;5.338;2023-08-12T04:27:59;22.20;99.90
40828;DHT22;26549;50.918;5.338;2023-08-12T04:30:25;22.30;99.90
40828;DHT22;26549;50.918;5.338;2023-08-12T04:32:51;22.30;99.90
40828;DHT22;26549;50.918;5.338;2023-08-12T04:35:17;22.30;99.90
40828;DHT22;26549;50.918;5.338;2023-08-12T04:37:43;22.20;99.90
40828;DHT22;26549;50.918;5.338;2023-08-12T04:40:09;22.20;99.90
40828;DHT22;26549;50.918;5.338;2023-08-12T04:42:35;22.20;99.90
40828;DHT22;26549;50.918;5.338;2023-08-12T04:45:01;22.20;99.90
40828;DHT22;26549;50.918;5.338;2023-08-12T04:47:28;22.20;99.90
40828;DHT22;26549;50.918;5.338;2023-08-12T04:49:54;22.20;99.90
40828;DHT22;26549;50.918;5.338;2023-08-12T04:52:20;22.20;99.90
40828;DHT22;26549;50.918;5.338;2023-08-12T04:54:47;22.30;99.90
40828;DHT22;26549;50.918;5.338;2023-08-12T04:57:13;22.30;99.90
40828;DHT22;26549;50.918;5.338;2023-08-12T04:59:38;22.20;99.90
40828;DHT22;26549;50.918;5.338;2023-08-12T05:02:04;22.20;99.90
40828;DHT22;26549;50.918;5.338;2023-08-12T05:04:30;22.20;99.90
40828;DHT22;26549;50.918;5.338;2023-08-12T05:06:56;22.20;99.90
40828;DHT22;26549;50.918;5.338;2023-08-12T05:09:21;22.20;99.90
40828;DHT22;26549;50.918;5.338;2023-08-12T05:11:47;22.20;99.90
40828;DHT22;26549;50.918;5.338;2023-08-12T05:14:13;22.20;99.90
40828;DHT22;26549;50.918;5.338;2023-08-12T05:16:39;22.20;99.90
40828;DHT22;26549;50.918;5.338;2023-08-12T05:19:04;22.00;99.90
40828;DHT22;26549;50.918;5.338;2023-08-12T05:21:30;22.00;99.90
40828;DHT22;26549;50.918;5.338;2023-08-12T05:23:56;21.90;99.90
40828;DHT22;26549;50.918;5.338;2023-08-12T05:26:21;22.00;99.90
40828;DHT22;26549;50.918;5.338;2023-08-12T05:28:47;22.00;99.90
40828;DHT22;26549;50.918;5.338;2023-08-12T05:31:13;22.00;99.90
40828;DHT22;26549;50.918;5.338;2023-08-12T05:33:39;21.90;99.90
40828;DHT22;26549;50.918;5.338;2023-08-12T05:36:05;22.00;99.90
40828;DHT22;26549;50.918;5.338;2023-08-12T05:38:30;22.00;99.90
40828;DHT22;26549;50.918;5.338;2023-08-12T05:40:56;22.00;99.90
40828;DHT22;26549;50.918;5.338;2023-08-12T05:43:22;22.00;99.90
40828;DHT22;26549;50.918;5.338;2023-08-12T05:45:48;22.00;99.90
40828;DHT22;26549;50.918;5.338;2023-08-12T05:48:14;21.90;99.90
40828;DHT22;26549;50.918;5.338;2023-08-12T05:50:39;21.90;99.90
40828;DHT22;26549;50.918;5.338;2023-08-12T05:53:05;21.90;99.90
40828;DHT22;26549;50.918;5.338;2023-08-12T05:55:33;22.00;99.90
40828;DHT22;26549;50.918;5.338;2023-08-12T05:58:00;22.00;99.90
40828;DHT22;26549;50.918;5.338;2023-08-12T06:00:26;22.10;99.90
40828;DHT22;26549;50.918;5.338;2023-08-12T06:02:53;22.10;99.90
40828;DHT22;26549;50.918;5.338;2023-08-12T06:05:19;22.20;99.90
40828;DHT22;26549;50.918;5.338;2023-08-12T06:07:44;22.20;99.90
40828;DHT22;26549;50.918;5.338;2023-08-12T06:10:10;22.20;99.90
40828;DHT22;26549;50.918;5.338;2023-08-12T06:12:36;22.20;99.90
40828;DHT22;26549;50.918;5.338;2023-08-12T06:15:03;22.20;99.90
40828;DHT22;26549;50.918;5.338;2023-08-12T06:17:29;22.10;99.90
40828;DHT22;26549;50.918;5.338;2023-08-12T06:19:54;22.20;99.90
40828;DHT22;26549;50.918;5.338;2023-08-12T06:22:21;22.10;99.90
40828;DHT22;26549;50.918;5.338;2023-08-12T06:24:47;22.10;99.90
40828;DHT22;26549;50.918;5.338;2023-08-12T06:27:12;22.20;99.90
40828;DHT22;26549;50.918;5.338;2023-08-12T06:29:38;22.00;99.90
40828;DHT22;26549;50.918;5.338;2023-08-12T06:32:04;22.00;99.90
40828;DHT22;26549;50.918;5.338;2023-08-12T06:34:30;22.10;99.90
40828;DHT22;26549;50.918;5.338;2023-08-12T06:36:56;22.00;99.90
40828;DHT22;26549;50.918;5.338;2023-08-12T06:39:23;22.00;99.90
40828;DHT22;26549;50.918;5.338;2023-08-12T06:41:49;22.00;99.90
40828;DHT22;26549;50.918;5.338;2023-08-12T06:44:17;22.00;99.90
40828;DHT22;26549;50.918;5.338;2023-08-12T06:46:43;22.00;99.90
40828;DHT22;26549;50.918;5.338;2023-08-12T06:49:10;22.00;99.90
40828;DHT22;26549;50.918;5.338;2023-08-12T06:51:36;21.90;99.90
40828;DHT22;26549;50.918;5.338;2023-08-12T06:54:01;21.90;99.90
40828;DHT22;26549;50.918;5.338;2023-08-12T06:56:29;21.90;99.90
40828;DHT22;26549;50.918;5.338;2023-08-12T06:58:57;22.00;99.90
40828;DHT22;26549;50.918;5.338;2023-08-12T07:01:23;21.90;99.90
40828;DHT22;26549;50.918;5.338;2023-08-12T07:03:51;21.90;99.90
40828;DHT22;26549;50.918;5.338;2023-08-12T07:06:18;22.00;99.90
40828;DHT22;26549;50.918;5.338;2023-08-12T07:08:45;22.10;99.90
40828;DHT22;26549;50.918;5.338;2023-08-12T07:11:12;22.10;99.90
40828;DHT22;26549;50.918;5.338;2023-08-12T07:13:38;22.10;99.90
40828;DHT22;26549;50.918;5.338;2023-08-12T07:16:05;22.10;99.90
40828;DHT22;26549;50.918;5.338;2023-08-12T07:18:33;22.00;99.90
40828;DHT22;26549;50.918;5.338;2023-08-12T07:20:58;22.10;99.90
40828;DHT22;26549;50.918;5.338;2023-08-12T07:23:25;22.20;99.90
40828;DHT22;26549;50.918;5.338;2023-08-12T07:25:51;22.20;99.90
40828;DHT22;26549;50.918;5.338;2023-08-12T07:28:17;22.30;99.90
40828;DHT22;26549;50.918;5.338;2023-08-12T07:30:44;22.30;99.90
40828;DHT22;26549;50.918;5.338;2023-08-12T07:33:11;22.30;99.90
40828;DHT22;26549;50.918;5.338;2023-08-12T07:35:36;22.50;99.90
40828;DHT22;26549;50.918;5.338;2023-08-12T07:38:02;22.50;99.90
40828;DHT22;26549;50.918;5.338;2023-08-12T07:40:28;22.50;99.90
40828;DHT22;26549;50.918;5.338;2023-08-12T07:42:54;22.50;99.90
40828;DHT22;26549;50.918;5.338;2023-08-12T07:45:21;22.60;99.90
40828;DHT22;26549;50.918;5.338;2023-08-12T07:47:46;22.70;99.90
40828;DHT22;26549;50.918;5.338;2023-08-12T07:50:12;22.80;99.90
40828;DHT22;26549;50.918;5.338;2023-08-12T07:52:38;22.80;99.90
40828;DHT22;26549;50.918;5.338;2023-08-12T07:55:04;22.90;99.90
40828;DHT22;26549;50.918;5.338;2023-08-12T07:57:30;22.90;99.90
40828;DHT22;26549;50.918;5.338;2023-08-12T07:59:56;23.00;99.90
40828;DHT22;26549;50.918;5.338;2023-08-12T08:02:21;22.90;99.90
40828;DHT22;26549;50.918;5.338;2023-08-12T08:04:47;23.00;99.90
40828;DHT22;26549;50.918;5.338;2023-08-12T08:07:15;22.90;99.90
40828;DHT22;26549;50.918;5.338;2023-08-12T08:09:42;23.00;99.90
40828;DHT22;26549;50.918;5.338;2023-08-12T08:12:10;22.80;99.90
40828;DHT22;26549;50.918;5.338;2023-08-12T08:14:36;22.80;99.90
40828;DHT22;26549;50.918;5.338;2023-08-12T08:17:02;22.70;99.90
40828;DHT22;26549;50.918;5.338;2023-08-12T08:19:29;22.80;99.90
40828;DHT22;26549;50.918;5.338;2023-08-12T08:21:56;22.70;99.90
40828;DHT22;26549;50.918;5.338;2023-08-12T08:24:22;22.70;99.90
40828;DHT22;26549;50.918;5.338;2023-08-12T08:26:47;22.70;99.90
40828;DHT22;26549;50.918;5.338;2023-08-12T08:29:13;22.60;99.90
40828;DHT22;26549;50.918;5.338;2023-08-12T08:31:39;22.70;99.90
40828;DHT22;26549;50.918;5.338;2023-08-12T08:34:06;22.70;99.90
40828;DHT22;26549;50.918;5.338;2023-08-12T08:36:32;22.70;99.90
40828;DHT22;26549;50.918;5.338;2023-08-12T08:38:57;22.70;99.90
40828;DHT22;26549;50.918;5.338;2023-08-12T08:41:24;22.80;99.90
40828;DHT22;26549;50.918;5.338;2023-08-12T08:43:50;22.80;99.90
40828;DHT22;26549;50.918;5.338;2023-08-12T08:46:18;22.90;99.90
40828;DHT22;26549;50.918;5.338;2023-08-12T08:48:45;23.00;99.90
40828;DHT22;26549;50.918;5.338;2023-08-12T08:51:12;23.10;99.90
40828;DHT22;26549;50.918;5.338;2023-08-12T08:53:39;23.10;99.90
40828;DHT22;26549;50.918;5.338;2023-08-12T08:56:08;23.00;99.90
40828;DHT22;26549;50.918;5.338;2023-08-12T08:58:38;22.90;99.90
40828;DHT22;26549;50.918;5.338;2023-08-12T09:01:06;22.90;99.90
40828;DHT22;26549;50.918;5.338;2023-08-12T09:03:34;23.00;99.90
40828;DHT22;26549;50.918;5.338;2023-08-12T09:06:01;23.00;99.90
40828;DHT22;26549;50.918;5.338;2023-08-12T09:08:27;23.10;99.90
40828;DHT22;26549;50.918;5.338;2023-08-12T09:10:57;23.10;99.90
40828;DHT22;26549;50.918;5.338;2023-08-12T09:13:23;23.20;99.90
40828;DHT22;26549;50.918;5.338;2023-08-12T09:15:50;23.20;99.90
40828;DHT22;26549;50.918;5.338;2023-08-12T09:18:17;23.20;99.90
40828;DHT22;26549;50.918;5.338;2023-08-12T09:20:43;23.10;99.90
40828;DHT22;26549;50.918;5.338;2023-08-12T09:23:09;23.00;99.90
40828;DHT22;26549;50.918;5.338;2023-08-12T09:25:45;23.00;99.90
40828;DHT22;26549;50.918;5.338;2023-08-12T09:28:11;22.80;99.90
40828;DHT22;26549;50.918;5.338;2023-08-12T09:30:38;22.90;99.90
40828;DHT22;26549;50.918;5.338;2023-08-12T09:33:06;23.00;99.90
40828;DHT22;26549;50.918;5.338;2023-08-12T09:35:38;23.10;99.90
40828;DHT22;26549;50.918;5.338;2023-08-12T09:38:06;23.10;99.90
40828;DHT22;26549;50.918;5.338;2023-08-12T09:40:34;23.10;99.90
40828;DHT22;26549;50.918;5.338;2023-08-12T09:43:00;23.20;99.90
40828;DHT22;26549;50.918;5.338;2023-08-12T09:45:26;23.20;99.90
40828;DHT22;26549;50.918;5.338;2023-08-12T09:47:55;23.00;99.90
40828;DHT22;26549;50.918;5.338;2023-08-12T09:50:22;23.10;99.90
40828;DHT22;26549;50.918;5.338;2023-08-12T09:52:49;23.00;99.90
40828;DHT22;26549;50.918;5.338;2023-08-12T09:55:17;23.10;99.90
40828;DHT22;26549;50.918;5.338;2023-08-12T09:57:49;23.20;99.90
40828;DHT22;26549;50.918;5.338;2023-08-12T10:00:16;23.30;99.90
40828;DHT22;26549;50.918;5.338;2023-08-12T10:02:45;23.50;99.90
40828;DHT22;26549;50.918;5.338;2023-08-12T10:05:19;23.50;99.90
40828;DHT22;26549;50.918;5.338;2023-08-12T10:07:48;23.30;99.90
40828;DHT22;26549;50.918;5.338;2023-08-12T10:10:14;23.50;99.90
40828;DHT22;26549;50.918;5.338;2023-08-12T10:12:41;23.50;99.90
40828;DHT22;26549;50.918;5.338;2023-08-12T10:15:08;23.70;99.90
40828;DHT22;26549;50.918;5.338;2023-08-12T10:17:35;23.80;99.90
40828;DHT22;26549;50.918;5.338;2023-08-12T10:20:03;24.10;99.90
40828;DHT22;26549;50.918;5.338;2023-08-12T10:22:30;24.10;99.90
40828;DHT22;26549;50.918;5.338;2023-08-12T10:25:02;24.00;99.90
40828;DHT22;26549;50.918;5.338;2023-08-12T10:27:28;24.10;99.90
40828;DHT22;26549;50.918;5.338;2023-08-12T10:29:56;24.20;99.90
40828;DHT22;26549;50.918;5.338;2023-08-12T10:32:24;23.80;99.90
40828;DHT22;26549;50.918;5.338;2023-08-12T10:34:57;23.70;99.90
40828;DHT22;26549;50.918;5.338;2023-08-12T10:37:26;23.50;99.90
40828;DHT22;26549;50.918;5.338;2023-08-12T10:39:55;23.50;99.90
40828;DHT22;26549;50.918;5.338;2023-08-12T10:45:09;23.60;99.90
40828;DHT22;26549;50.918;5.338;2023-08-12T10:47:43;23.40;99.90
40828;DHT22;26549;50.918;5.338;2023-08-12T10:50:27;23.30;99.90
40828;DHT22;26549;50.918;5.338;2023-08-12T10:52:54;23.10;99.90
40828;DHT22;26549;50.918;5.338;2023-08-12T10:55:26;23.10;99.90
40828;DHT22;26549;50.918;5.338;2023-08-12T10:57:58;23.30;99.90
40828;DHT22;26549;50.918;5.338;2023-08-12T11:00:25;23.30;99.90
40828;DHT22;26549;50.918;5.338;2023-08-12T11:02:53;23.40;99.90
40828;DHT22;26549;50.918;5.338;2023-08-12T11:05:20;23.40;99.90
40828;DHT22;26549;50.918;5.338;2023-08-12T11:07:56;23.40;99.90
40828;DHT22;26549;50.918;5.338;2023-08-12T11:10:23;23.40;99.90
40828;DHT22;26549;50.918;5.338;2023-08-12T11:17:54;23.10;99.90
40828;DHT22;26549;50.918;5.338;2023-08-12T11:20:21;22.90;99.90
40828;DHT22;26549;50.918;5.338;2023-08-12T11:22:47;22.80;99.90
40828;DHT22;26549;50.918;5.338;2023-08-12T11:25:14;23.00;99.90
40828;DHT22;26549;50.918;5.338;2023-08-12T11:27:46;22.90;99.90
40828;DHT22;26549;50.918;5.338;2023-08-12T11:30:17;23.00;99.90
40828;DHT22;26549;50.918;5.338;2023-08-12T11:32:45;23.10;99.90
40828;DHT22;26549;50.918;5.338;2023-08-12T11:35:13;23.30;99.90
40828;DHT22;26549;50.918;5.338;2023-08-12T11:37:40;23.20;99.90
40828;DHT22;26549;50.918;5.338;2023-08-12T11:40:08;23.10;99.90
40828;DHT22;26549;50.918;5.338;2023-08-12T11:42:35;23.20;99.90
40828;DHT22;26549;50.918;5.338;2023-08-12T11:45:05;23.30;99.90
40828;DHT22;26549;50.918;5.338;2023-08-12T11:47:33;23.30;99.90
40828;DHT22;26549;50.918;5.338;2023-08-12T11:50:02;23.40;99.90
40828;DHT22;26549;50.918;5.338;2023-08-12T11:52:30;23.60;99.90
40828;DHT22;26549;50.918;5.338;2023-08-12T11:54:57;23.70;99.90
40828;DHT22;26549;50.918;5.338;2023-08-12T11:57:23;23.80;99.90
40828;DHT22;26549;50.918;5.338;2023-08-12T11:59:50;23.90;99.90
40828;DHT22;26549;50.918;5.338;2023-08-12T12:02:16;23.90;99.90
40828;DHT22;26549;50.918;5.338;2023-08-12T12:04:44;23.90;99.90
40828;DHT22;26549;50.918;5.338;2023-08-12T12:07:24;23.80;99.90
40828;DHT22;26549;50.918;5.338;2023-08-12T12:09:54;23.80;99.90
40828;DHT22;26549;50.918;5.338;2023-08-12T12:12:24;23.80;99.90
40828;DHT22;26549;50.918;5.338;2023-08-12T12:14:53;23.80;99.90
40828;DHT22;26549;50.918;5.338;2023-08-12T12:17:22;23.90;99.90
40828;DHT22;26549;50.918;5.338;2023-08-12T12:19:55;23.90;99.90
40828;DHT22;26549;50.918;5.338;2023-08-12T12:22:29;23.80;99.90
40828;DHT22;26549;50.918;5.338;2023-08-12T12:25:08;23.80;99.90
40828;DHT22;26549;50.918;5.338;2023-08-12T12:27:39;23.90;99.90
40828;DHT22;26549;50.918;5.338;2023-08-12T12:30:08;23.70;99.90
40828;DHT22;26549;50.918;5.338;2023-08-12T12:32:35;23.70;99.90
40828;DHT22;26549;50.918;5.338;2023-08-12T12:35:02;23.80;99.90
40828;DHT22;26549;50.918;5.338;2023-08-12T12:37:29;23.80;99.90
40828;DHT22;26549;50.918;5.338;2023-08-12T12:39:54;23.80;99.90
40828;DHT22;26549;50.918;5.338;2023-08-12T12:42:20;23.80;99.90
40828;DHT22;26549;50.918;5.338;2023-08-12T12:44:46;23.90;99.90
40828;DHT22;26549;50.918;5.338;2023-08-12T12:47:12;23.90;99.90
40828;DHT22;26549;50.918;5.338;2023-08-12T12:49:40;24.00;99.90
40828;DHT22;26549;50.918;5.338;2023-08-12T12:52:09;24.00;99.90
40828;DHT22;26549;50.918;5.338;2023-08-12T12:54:35;24.10;99.90
40828;DHT22;26549;50.918;5.338;2023-08-12T12:57:01;24.10;99.90
40828;DHT22;26549;50.918;5.338;2023-08-12T12:59:27;24.00;99.90
40828;DHT22;26549;50.918;5.338;2023-08-12T13:01:53;24.10;99.90
40828;DHT22;26549;50.918;5.338;2023-08-12T13:42:55;23.40;99.90
40828;DHT22;26549;50.918;5.338;2023-08-12T13:45:21;23.40;99.90
40828;DHT22;26549;50.918;5.338;2023-08-12T13:47:47;23.70;99.90
40828;DHT22;26549;50.918;5.338;2023-08-12T13:50:13;23.90;99.90
40828;DHT22;26549;50.918;5.338;2023-08-12T13:52:40;24.10;99.90
40828;DHT22;26549;50.918;5.338;2023-08-12T13:55:07;24.20;99.90
40828;DHT22;26549;50.918;5.338;2023-08-12T13:57:33;24.30;99.90
40828;DHT22;26549;50.918;5.338;2023-08-12T13:59:58;24.40;99.90
40828;DHT22;26549;50.918;5.338;2023-08-12T14:02:24;24.50;99.90
40828;DHT22;26549;50.918;5.338;2023-08-12T14:04:50;24.50;99.90
40828;DHT22;26549;50.918;5.338;2023-08-12T14:07:16;24.70;99.90
40828;DHT22;26549;50.918;5.338;2023-08-12T14:09:45;24.70;99.90
40828;DHT22;26549;50.918;5.338;2023-08-12T14:12:12;24.70;99.90
40828;DHT22;26549;50.918;5.338;2023-08-12T14:14:37;24.60;99.90
40828;DHT22;26549;50.918;5.338;2023-08-12T14:17:04;24.60;99.90
40828;DHT22;26549;50.918;5.338;2023-08-12T14:19:30;24.70;99.90
40828;DHT22;26549;50.918;5.338;2023-08-12T14:21:56;24.60;99.90
40828;DHT22;26549;50.918;5.338;2023-08-12T14:24:22;24.60;99.90
40828;DHT22;26549;50.918;5.338;2023-08-12T14:26:47;24.60;99.90
40828;DHT22;26549;50.918;5.338;2023-08-12T14:29:13;24.70;99.90
40828;DHT22;26549;50.918;5.338;2023-08-12T14:31:39;24.60;99.90
40828;DHT22;26549;50.918;5.338;2023-08-12T14:34:04;24.70;99.90
40828;DHT22;26549;50.918;5.338;2023-08-12T14:36:30;25.00;99.90
40828;DHT22;26549;50.918;5.338;2023-08-12T14:38:57;25.10;99.90
40828;DHT22;26549;50.918;5.338;2023-08-12T14:41:22;25.20;99.90
40828;DHT22;26549;50.918;5.338;2023-08-12T14:43:48;25.20;99.90
40828;DHT22;26549;50.918;5.338;2023-08-12T14:46:14;25.10;99.90
40828;DHT22;26549;50.918;5.338;2023-08-12T14:48:40;24.90;99.90
40828;DHT22;26549;50.918;5.338;2023-08-12T14:51:05;25.00;99.90
40828;DHT22;26549;50.918;5.338;2023-08-12T14:53:31;24.90;99.90
40828;DHT22;26549;50.918;5.338;2023-08-12T14:55:57;24.90;99.90
40828;DHT22;26549;50.918;5.338;2023-08-12T14:58:22;24.80;99.90
40828;DHT22;26549;50.918;5.338;2023-08-12T15:00:49;24.80;99.90
40828;DHT22;26549;50.918;5.338;2023-08-12T15:03:15;25.00;99.90
40828;DHT22;26549;50.918;5.338;2023-08-12T15:05:41;25.10;99.90
40828;DHT22;26549;50.918;5.338;2023-08-12T15:08:07;25.40;99.90
40828;DHT22;26549;50.918;5.338;2023-08-12T15:10:33;25.50;99.90
40828;DHT22;26549;50.918;5.338;2023-08-12T15:12:59;25.50;99.50
40828;DHT22;26549;50.918;5.338;2023-08-12T15:15:24;25.40;99.60
40828;DHT22;26549;50.918;5.338;2023-08-12T15:17:50;25.40;99.90
40828;DHT22;26549;50.918;5.338;2023-08-12T15:20:17;25.50;99.90
40828;DHT22;26549;50.918;5.338;2023-08-12T15:22:43;25.60;99.50
40828;DHT22;26549;50.918;5.338;2023-08-12T15:25:09;25.50;99.90
40828;DHT22;26549;50.918;5.338;2023-08-12T15:27:34;25.70;99.90
40828;DHT22;26549;50.918;5.338;2023-08-12T15:30:00;25.60;98.90
40828;DHT22;26549;50.918;5.338;2023-08-12T15:32:26;25.60;99.70
40828;DHT22;26549;50.918;5.338;2023-08-12T15:34:52;25.80;98.60
40828;DHT22;26549;50.918;5.338;2023-08-12T15:37:18;25.70;98.70
40828;DHT22;26549;50.918;5.338;2023-08-12T15:39:47;25.80;98.80
40828;DHT22;26549;50.918;5.338;2023-08-12T15:42:13;25.80;98.90
40828;DHT22;26549;50.918;5.338;2023-08-12T15:44:39;25.80;98.20
40828;DHT22;26549;50.918;5.338;2023-08-12T15:47:05;25.80;98.90
40828;DHT22;26549;50.918;5.338;2023-08-12T15:49:32;25.90;98.70
40828;DHT22;26549;50.918;5.338;2023-08-12T15:51:58;25.80;98.10
40828;DHT22;26549;50.918;5.338;2023-08-12T15:54:24;25.80;97.90
40828;DHT22;26549;50.918;5.338;2023-08-12T15:56:50;25.90;98.30
40828;DHT22;26549;50.918;5.338;2023-08-12T15:59:16;25.90;97.90
40828;DHT22;26549;50.918;5.338;2023-08-12T16:01:42;26.00;98.20
40828;DHT22;26549;50.918;5.338;2023-08-12T16:04:08;25.90;98.20
40828;DHT22;26549;50.918;5.338;2023-08-12T16:06:33;26.00;98.10
40828;DHT22;26549;50.918;5.338;2023-08-12T16:09:00;25.80;97.90
40828;DHT22;26549;50.918;5.338;2023-08-12T16:11:26;25.80;98.40
40828;DHT22;26549;50.918;5.338;2023-08-12T16:13:53;25.70;98.20
40828;DHT22;26549;50.918;5.338;2023-08-12T16:16:18;25.90;98.30
40828;DHT22;26549;50.918;5.338;2023-08-12T16:18:44;25.90;97.80